createdAt,value
2023-04-21T00:03:55.502Z,6.97
2023-04-21T00:08:56.900Z,7.05
2023-04-21T00:13:58.054Z,6.98
2023-04-21T00:18:59.387Z,7.01
2023-04-21T00:24:00.681Z,6.90
2023-04-21T00:29:01.895Z,6.98
2023-04-21T00:34:03.090Z,6.93
2023-04-21T00:39:04.255Z,6.97
2023-04-21T00:44:05.477Z,6.99
2023-04-21T00:49:06.688Z,6.99
2023-04-21T00:54:07.874Z,6.98
2023-04-21T00:59:09.046Z,6.97
2023-04-21T01:04:10.548Z,6.96
2023-04-21T01:09:15.044Z,7.02
2023-04-21T01:14:16.253Z,7.01
2023-04-21T01:19:18.345Z,7.05
2023-04-21T01:24:19.730Z,7.08
2023-04-21T01:29:21.046Z,7.11
2023-04-21T01:34:22.301Z,7.16
2023-04-21T01:39:23.441Z,7.17
2023-04-21T01:44:25.061Z,7.22
2023-04-21T01:49:26.840Z,7.25
2023-04-21T01:54:28.098Z,7.29
2023-04-21T01:59:29.278Z,7.30
2023-04-21T02:04:30.583Z,7.36
2023-04-21T02:09:31.833Z,7.40
2023-04-21T02:14:32.967Z,7.43
2023-04-21T02:19:34.223Z,7.43
2023-04-21T02:24:35.897Z,7.40
2023-04-21T02:29:37.135Z,7.33
2023-04-21T02:34:38.325Z,7.24
2023-04-21T02:39:39.494Z,7.20
2023-04-21T02:44:40.854Z,7.13
2023-04-21T02:49:42.066Z,7.09
2023-04-21T02:54:43.287Z,7.11
2023-04-21T02:59:44.449Z,7.09
2023-04-21T03:04:45.672Z,7.00
2023-04-21T03:09:46.843Z,6.92
2023-04-21T03:14:48.078Z,6.83
2023-04-21T03:19:49.284Z,6.77
2023-04-21T03:24:50.428Z,6.74
2023-04-21T03:29:51.604Z,6.70
2023-04-21T03:34:52.806Z,6.70
2023-04-21T03:39:54.079Z,6.63
2023-04-21T03:44:55.311Z,6.57
2023-04-21T03:49:56.524Z,6.51
2023-04-21T03:54:57.740Z,6.51
2023-04-21T03:59:58.957Z,6.54
2023-04-21T04:05:00.268Z,6.42
2023-04-21T04:10:01.496Z,6.37
2023-04-21T04:15:02.880Z,6.27
2023-04-21T04:20:04.593Z,6.21
2023-04-21T04:25:05.866Z,6.13
2023-04-21T04:30:07.108Z,6.08
2023-04-21T04:35:08.308Z,6.05
2023-04-21T04:40:12.745Z,6.06
2023-04-21T04:45:13.990Z,6.09
2023-04-21T04:50:15.234Z,6.18
2023-04-21T04:55:16.469Z,6.25
2023-04-21T05:00:18.163Z,6.27
2023-04-21T05:05:20.274Z,6.33
2023-04-21T05:10:21.516Z,6.39
2023-04-21T05:15:23.029Z,6.47
2023-04-21T05:20:24.249Z,6.50
2023-04-21T05:25:25.525Z,6.55
2023-04-21T05:30:26.669Z,6.63
2023-04-21T05:35:27.888Z,6.65
2023-04-21T05:40:29.104Z,6.70
2023-04-21T05:45:30.308Z,6.70
2023-04-21T05:50:33.980Z,6.70
2023-04-21T05:55:35.205Z,6.42
2023-04-21T06:00:36.366Z,6.67
2023-04-21T06:05:37.600Z,6.76
2023-04-21T06:10:38.830Z,6.89
2023-04-21T06:15:40.014Z,6.97
2023-04-21T06:20:41.217Z,7.03
2023-04-21T06:25:42.370Z,7.14
2023-04-21T06:30:45.822Z,7.23
2023-04-21T06:35:47.040Z,7.35
2023-04-21T06:40:48.257Z,7.49
2023-04-21T06:45:49.480Z,7.62
2023-04-21T06:50:50.648Z,7.76
2023-04-21T06:55:52.923Z,7.85
2023-04-21T07:00:54.191Z,8.03
2023-04-21T07:05:55.432Z,8.18
2023-04-21T07:10:56.639Z,8.29
2023-04-21T07:15:57.926Z,8.51
2023-04-21T07:20:59.128Z,8.67
2023-04-21T07:26:00.326Z,8.74
2023-04-21T07:31:03.480Z,8.88
2023-04-21T07:36:05.021Z,8.87
2023-04-21T07:41:06.231Z,8.89
2023-04-21T07:46:07.639Z,8.99
2023-04-21T07:51:08.929Z,9.29
2023-04-21T07:56:10.147Z,9.37
2023-04-21T08:01:11.865Z,9.51
2023-04-21T08:06:13.115Z,9.70
2023-04-21T08:11:14.418Z,9.91
2023-04-21T08:16:15.847Z,10.07
2023-04-21T08:21:17.035Z,10.23
2023-04-21T08:26:20.921Z,10.30
2023-04-21T08:31:22.260Z,10.45
2023-04-21T08:36:29.545Z,10.44
2023-04-21T08:41:31.608Z,10.65
2023-04-21T08:46:32.799Z,10.88
2023-04-21T08:51:34.431Z,10.91
2023-04-21T08:56:35.680Z,11.01
2023-04-21T09:01:36.836Z,11.26
2023-04-21T09:06:38.069Z,11.59
2023-04-21T09:11:39.358Z,11.70
2023-04-21T09:16:40.595Z,11.70
2023-04-21T09:21:41.804Z,12.02
2023-04-21T09:26:43.019Z,12.79
2023-04-21T09:31:44.293Z,13.11
2023-04-21T09:36:46.272Z,13.44
2023-04-21T09:41:47.483Z,13.61
2023-04-21T09:46:49.593Z,14.29
2023-04-21T09:52:16.979Z,14.86
2023-04-21T09:57:12.205Z,15.16
2023-04-21T10:02:13.811Z,14.42
2023-04-21T10:07:15.098Z,15.30
2023-04-21T10:12:16.245Z,15.53
2023-04-21T10:17:18.056Z,15.83
2023-04-21T10:22:20.717Z,15.97
2023-04-21T10:27:23.442Z,16.42
2023-04-21T10:32:24.892Z,16.56
2023-04-21T10:37:26.126Z,17.01
2023-04-21T10:42:27.378Z,17.64
2023-04-21T10:47:28.675Z,18.01
2023-04-21T10:52:29.892Z,17.80
2023-04-21T10:57:31.584Z,17.91
2023-04-21T11:02:34.025Z,18.69
2023-04-21T11:07:36.300Z,19.00
2023-04-21T11:12:37.453Z,19.63
2023-04-21T11:17:39.942Z,20.39
2023-04-21T11:22:41.278Z,20.70
2023-04-21T11:27:42.493Z,20.82
2023-04-21T11:32:43.761Z,19.63
2023-04-21T11:37:44.942Z,19.67
2023-04-21T11:42:46.116Z,20.01
2023-04-21T11:47:47.384Z,19.64
2023-04-21T11:52:48.598Z,19.96
2023-04-21T11:57:49.774Z,20.65
2023-04-21T12:02:51.062Z,19.40
2023-04-21T12:07:52.429Z,18.52
2023-04-21T12:12:53.596Z,19.13
2023-04-21T12:17:55.224Z,19.45
2023-04-21T12:22:56.606Z,20.03
2023-04-21T12:27:57.938Z,19.86
2023-04-21T12:32:59.369Z,20.28
2023-04-21T12:38:00.693Z,19.91
2023-04-21T12:43:01.924Z,20.49
2023-04-21T12:48:04.977Z,19.67
2023-04-21T12:53:06.175Z,19.25
2023-04-21T12:58:07.397Z,19.88
2023-04-21T13:03:08.753Z,20.60
2023-04-21T13:08:09.965Z,21.38
2023-04-21T13:13:11.140Z,21.85
2023-04-21T13:18:12.340Z,21.12
2023-04-21T13:23:14.395Z,19.82
2023-04-21T13:28:16.892Z,19.35
2023-04-21T13:33:18.126Z,19.74
2023-04-21T13:38:20.544Z,19.83
2023-04-21T13:43:21.808Z,20.06
2023-04-21T13:48:24.197Z,20.10
2023-04-21T13:53:25.621Z,19.60
2023-04-21T13:58:26.908Z,19.57
2023-04-21T14:03:28.229Z,19.33
2023-04-21T14:08:29.475Z,19.17
2023-04-21T14:13:36.338Z,18.98
2023-04-21T14:18:44.338Z,18.87
2023-04-21T14:23:45.611Z,19.14
2023-04-21T14:28:46.915Z,19.22
2023-04-21T14:33:48.112Z,19.26
2023-04-21T14:38:49.286Z,19.40
2023-04-21T14:43:53.751Z,19.11
2023-04-21T14:48:55.045Z,18.95
2023-04-21T14:53:56.693Z,18.67
2023-04-21T14:58:57.888Z,18.97
2023-04-21T15:03:59.984Z,19.31
2023-04-21T15:09:01.687Z,19.57
2023-04-21T15:14:02.989Z,19.82
2023-04-21T15:19:04.286Z,19.79
2023-04-21T15:24:05.539Z,19.38
2023-04-21T15:29:06.754Z,19.44
2023-04-21T15:34:08.022Z,19.48
2023-04-21T15:39:13.723Z,19.45
2023-04-21T15:44:14.936Z,19.60
2023-04-21T15:49:16.170Z,19.42
2023-04-21T15:54:17.430Z,19.08
2023-04-21T15:59:18.598Z,18.95
2023-04-21T16:04:19.936Z,18.57
2023-04-21T16:09:21.718Z,18.19
2023-04-21T16:14:22.989Z,18.12
2023-04-21T16:19:24.486Z,18.33
2023-04-21T16:24:25.870Z,18.33
2023-04-21T16:29:27.116Z,18.11
2023-04-21T16:34:28.314Z,17.79
2023-04-21T16:39:29.572Z,17.50
2023-04-21T16:44:30.994Z,17.21
2023-04-21T16:49:32.179Z,17.02
2023-04-21T16:54:33.379Z,17.02
2023-04-21T16:59:34.665Z,17.09
2023-04-21T17:04:37.542Z,17.09
2023-04-21T17:09:39.065Z,17.09
2023-04-21T17:14:40.630Z,17.07
2023-04-21T17:19:41.911Z,16.93
2023-04-21T17:24:52.330Z,16.79
2023-04-21T17:29:54.656Z,16.56
2023-04-21T17:34:56.185Z,16.26
2023-04-21T17:39:59.116Z,16.03
2023-04-21T17:45:05.346Z,15.89
2023-04-21T17:50:08.829Z,15.83
2023-04-21T17:55:10.096Z,15.75
2023-04-21T18:00:11.572Z,15.62
2023-04-21T18:05:17.058Z,15.41
2023-04-21T18:10:18.284Z,15.23
2023-04-21T18:15:19.481Z,15.09
2023-04-21T18:20:20.813Z,14.98
2023-04-21T18:25:38.325Z,14.85
2023-04-21T18:30:43.063Z,14.73
2023-04-21T18:35:44.223Z,14.62
2023-04-21T18:40:45.477Z,14.62
2023-04-21T18:45:46.800Z,14.63
2023-04-21T18:50:48.054Z,14.62
2023-04-21T18:55:49.300Z,14.62
2023-04-21T19:00:50.652Z,14.63
2023-04-21T19:05:52.294Z,14.65
2023-04-21T19:10:53.489Z,14.74
2023-04-21T19:15:54.738Z,14.46
2023-04-21T19:20:56.089Z,13.89
2023-04-21T19:25:57.508Z,13.53
2023-04-21T19:30:58.724Z,12.91
2023-04-21T19:35:59.939Z,12.42
2023-04-21T19:41:01.073Z,12.09
2023-04-21T19:46:02.455Z,12.04
2023-04-21T19:51:03.686Z,11.98
2023-04-21T19:56:04.921Z,11.74
2023-04-21T20:01:06.386Z,11.65
2023-04-21T20:06:07.625Z,11.52
2023-04-21T20:11:08.838Z,11.42
2023-04-21T20:16:10.154Z,11.36
2023-04-21T20:21:11.360Z,11.33
2023-04-21T20:26:12.531Z,11.29
2023-04-21T20:31:14.520Z,11.15
2023-04-21T20:36:17.629Z,10.95
2023-04-21T20:41:18.938Z,10.83
2023-04-21T20:46:20.451Z,10.81
2023-04-21T20:51:22.023Z,10.69
2023-04-21T20:56:23.199Z,10.58
2023-04-21T21:01:24.489Z,10.50
2023-04-21T21:06:25.755Z,10.46
2023-04-21T21:11:27.104Z,10.41
2023-04-21T21:16:28.331Z,10.39
2023-04-21T21:21:29.613Z,10.22
2023-04-21T21:26:30.809Z,10.12
2023-04-21T21:31:32.022Z,9.95
2023-04-21T21:36:33.264Z,9.84
2023-04-21T21:41:34.522Z,9.71
2023-04-21T21:46:36.338Z,9.63
2023-04-21T21:51:37.626Z,9.60
2023-04-21T21:56:38.845Z,9.55
2023-04-21T22:01:40.045Z,9.53
2023-04-21T22:06:41.302Z,9.36
2023-04-21T22:11:42.530Z,9.29
2023-04-21T22:16:45.543Z,9.19
2023-04-21T22:21:46.730Z,9.16
2023-04-21T22:26:47.930Z,9.18
2023-04-21T22:31:49.156Z,9.16
2023-04-21T22:36:50.540Z,9.08
2023-04-21T22:41:53.067Z,9.04
2023-04-21T22:46:54.651Z,9.03
2023-04-21T22:51:55.821Z,8.99
2023-04-21T22:56:57.174Z,8.95
2023-04-21T23:01:58.382Z,8.89
2023-04-21T23:06:59.636Z,8.86
2023-04-21T23:12:01.410Z,8.69
2023-04-21T23:17:02.694Z,8.67
2023-04-21T23:22:03.945Z,8.65
2023-04-21T23:27:05.147Z,8.65
2023-04-21T23:32:06.708Z,8.64
2023-04-21T23:37:08.007Z,8.57
2023-04-21T23:42:09.477Z,8.55
2023-04-21T23:47:11.525Z,8.61
2023-04-21T23:52:12.744Z,8.65
2023-04-21T23:57:14.341Z,8.67
